Time;durP1;ratioP1;P1;durP2;ratioP2;P2;SDS_P1;SDS_P2;PMS_P1;PMS_P2;Temp;Humidity;BMP_temperature;BMP_pressure;BME280_temperature;BME280_humidity;BME280_pressure;Samples;Min_cycle;Max_cycle;Signal;HPM_P1;HPM_P2
2021/07/01 00:02:04;;;;;;;16.37;14.87;;;14.70;99.90;;;;;;4992516;28;20443;-65
2021/07/01 00:04:31;;;;;;;17.30;15.60;;;14.70;99.90;;;;;;4992859;28;20458;-65
2021/07/01 00:06:58;;;;;;;16.23;14.67;;;14.80;99.90;;;;;;4992525;28;20463;-66
2021/07/01 00:09:25;;;;;;;16.00;14.50;;;14.80;99.90;;;;;;4992584;28;20442;-65
2021/07/01 00:11:55;;;;;;;15.50;14.10;;;14.80;99.90;;;;;;4992372;28;20453;-65
2021/07/01 00:14:24;;;;;;;15.03;13.60;;;14.90;99.90;;;;;;4992440;28;20503;-66
2021/07/01 00:16:52;;;;;;;20.20;15.37;;;14.90;99.90;;;;;;4992337;28;20943;-66
2021/07/01 00:19:19;;;;;;;16.90;15.50;;;14.80;99.90;;;;;;4992415;28;20454;-66
2021/07/01 00:21:46;;;;;;;16.30;14.87;;;14.90;99.90;;;;;;4992185;28;20451;-66
2021/07/01 00:24:13;;;;;;;16.27;14.80;;;14.90;99.90;;;;;;4992371;28;20451;-65
2021/07/01 00:26:40;;;;;;;14.87;13.57;;;14.90;99.90;;;;;;4992226;28;20481;-66
2021/07/01 00:29:07;;;;;;;17.53;16.03;;;14.80;99.90;;;;;;4992308;28;20462;-66
2021/07/01 00:31:35;;;;;;;15.77;14.13;;;14.80;99.90;;;;;;4992128;28;20467;-66
2021/07/01 00:34:05;;;;;;;16.70;15.20;;;14.70;99.90;;;;;;4992125;28;20451;-66
2021/07/01 00:36:32;;;;;;;18.07;16.47;;;14.70;99.90;;;;;;4991777;28;20490;-66
2021/07/01 00:38:58;;;;;;;15.57;14.07;;;14.80;99.90;;;;;;4992280;28;20443;-66
2021/07/01 00:41:25;;;;;;;14.03;12.73;;;14.80;99.90;;;;;;4991875;28;20447;-66
2021/07/01 00:43:52;;;;;;;13.60;12.47;;;14.80;99.90;;;;;;4992063;28;20454;-67
2021/07/01 00:46:19;;;;;;;16.00;14.37;;;14.80;99.90;;;;;;4991895;28;20485;-66
2021/07/01 00:48:47;;;;;;;15.07;13.53;;;14.80;99.90;;;;;;4991908;28;20453;-66
2021/07/01 00:51:14;;;;;;;15.97;14.47;;;14.80;99.90;;;;;;4991904;28;20933;-66
2021/07/01 00:53:41;;;;;;;14.93;13.63;;;14.80;99.90;;;;;;4991968;28;20446;-65
2021/07/01 00:56:09;;;;;;;13.83;12.53;;;14.80;99.90;;;;;;4991825;28;20490;-66
2021/07/01 00:58:37;;;;;;;15.70;13.47;;;14.80;99.90;;;;;;4991972;28;20490;-66
2021/07/01 01:01:05;;;;;;;13.63;12.43;;;14.90;99.90;;;;;;4992149;28;20455;-65
2021/07/01 01:03:33;;;;;;;13.50;12.50;;;14.80;99.90;;;;;;4998081;28;20442;-66
2021/07/01 01:06:01;;;;;;;13.60;12.40;;;14.80;99.90;;;;;;4998369;28;20840;-66
2021/07/01 01:08:28;;;;;;;14.97;13.57;;;14.80;99.90;;;;;;4998687;28;20446;-66
2021/07/01 01:10:55;;;;;;;15.03;13.60;;;14.80;99.90;;;;;;4998360;28;20810;-66
2021/07/01 01:13:25;;;;;;;16.67;15.37;;;14.80;99.90;;;;;;4997766;28;20458;-66
2021/07/01 01:15:53;;;;;;;14.77;13.37;;;14.80;99.90;;;;;;4998263;28;20498;-66
2021/07/01 01:18:20;;;;;;;13.80;12.60;;;14.80;99.90;;;;;;4998378;28;20506;-66
2021/07/01 01:20:47;;;;;;;14.73;13.40;;;14.80;99.90;;;;;;4998367;28;20446;-66
2021/07/01 01:23:15;;;;;;;14.10;13.00;;;14.80;99.90;;;;;;4998159;28;20453;-66
2021/07/01 01:25:43;;;;;;;14.60;13.40;;;14.80;99.90;;;;;;4998136;28;20471;-66
2021/07/01 01:28:10;;;;;;;14.80;13.20;;;14.80;99.90;;;;;;4998283;28;20449;-66
2021/07/01 01:30:38;;;;;;;14.70;13.53;;;14.80;99.90;;;;;;4998309;28;20446;-66
2021/07/01 01:33:05;;;;;;;14.30;13.20;;;14.80;99.90;;;;;;4998039;28;20447;-66
2021/07/01 01:35:32;;;;;;;15.83;14.53;;;14.80;99.90;;;;;;4998248;28;20467;-66
2021/07/01 01:37:59;;;;;;;14.17;13.00;;;14.80;99.90;;;;;;4998057;28;20493;-66
2021/07/01 01:40:28;;;;;;;14.13;12.73;;;14.80;99.90;;;;;;4998069;28;20461;-66
2021/07/01 01:42:55;;;;;;;14.07;12.77;;;14.80;99.90;;;;;;4997941;28;20449;-66
2021/07/01 01:45:21;;;;;;;15.00;13.53;;;14.90;99.90;;;;;;4997702;28;20514;-66
2021/07/01 01:47:50;;;;;;;14.70;13.30;;;14.80;99.90;;;;;;4998134;28;20438;-66
2021/07/01 01:50:18;;;;;;;14.30;13.20;;;14.90;99.90;;;;;;4998052;28;20446;-66
2021/07/01 01:52:45;;;;;;;15.70;14.30;;;14.90;99.90;;;;;;4997608;28;20815;-66
2021/07/01 01:55:13;;;;;;;16.60;14.87;;;14.90;99.90;;;;;;4997871;28;20466;-66
2021/07/01 01:57:43;;;;;;;15.43;14.10;;;14.80;99.90;;;;;;4997900;28;20483;-66
2021/07/01 02:00:11;;;;;;;14.63;13.50;;;14.80;99.90;;;;;;4998154;28;20913;-66
2021/07/01 02:02:38;;;;;;;15.50;14.20;;;14.80;99.90;;;;;;4997702;28;20480;-66
2021/07/01 02:05:06;;;;;;;16.87;15.47;;;14.80;99.90;;;;;;4998037;28;20852;-66
2021/07/01 02:07:33;;;;;;;16.10;14.70;;;14.80;99.90;;;;;;4997958;28;20457;-66
2021/07/01 02:09:59;;;;;;;15.90;14.50;;;14.80;99.90;;;;;;4997867;28;20457;-65
2021/07/01 02:12:27;;;;;;;16.50;15.20;;;14.80;99.90;;;;;;4997445;28;20450;-66
2021/07/01 02:14:55;;;;;;;16.83;15.50;;;14.80;99.90;;;;;;4994684;28;21175;-65
2021/07/01 02:17:21;;;;;;;15.87;14.63;;;14.80;99.90;;;;;;4994668;28;20494;-65
2021/07/01 02:19:48;;;;;;;15.77;14.67;;;14.70;99.90;;;;;;4994649;28;20454;-66
2021/07/01 02:22:15;;;;;;;15.90;14.53;;;14.80;99.90;;;;;;4994449;28;20451;-66
2021/07/01 02:24:42;;;;;;;16.70;15.37;;;14.70;99.90;;;;;;4994447;28;20458;-66
2021/07/01 02:27:10;;;;;;;15.10;13.70;;;14.80;99.90;;;;;;4994792;28;20443;-66
2021/07/01 02:29:37;;;;;;;16.47;15.07;;;14.70;99.90;;;;;;4994496;28;20453;-66
2021/07/01 02:32:06;;;;;;;14.83;13.87;;;14.80;99.90;;;;;;4994439;28;20451;-66
2021/07/01 02:34:33;;;;;;;15.50;14.23;;;14.80;99.90;;;;;;4994235;28;20447;-66
2021/07/01 02:36:59;;;;;;;17.80;14.57;;;14.80;99.90;;;;;;4994249;28;20486;-65
2021/07/01 02:39:26;;;;;;;16.47;14.97;;;14.70;99.90;;;;;;4994159;28;20451;-66
2021/07/01 02:41:53;;;;;;;16.97;15.37;;;14.70;99.90;;;;;;4994136;28;20446;-66
2021/07/01 02:44:19;;;;;;;17.60;16.20;;;14.70;99.90;;;;;;4994223;28;20451;-66
2021/07/01 02:46:46;;;;;;;19.40;17.70;;;14.70;99.90;;;;;;4994013;28;20486;-66
2021/07/01 02:49:14;;;;;;;16.47;14.97;;;14.70;99.90;;;;;;4994188;28;20864;-66
2021/07/01 02:51:41;;;;;;;17.53;15.80;;;14.70;99.90;;;;;;4993847;28;20717;-66
2021/07/01 02:54:08;;;;;;;16.70;15.10;;;14.70;99.90;;;;;;4994186;28;20431;-66
2021/07/01 02:56:40;;;;;;;17.17;15.40;;;14.70;99.90;;;;;;4994033;28;20489;-66
2021/07/01 02:59:07;;;;;;;17.93;16.53;;;14.70;99.90;;;;;;4994045;28;20509;-65
2021/07/01 03:01:34;;;;;;;16.57;14.87;;;14.70;99.90;;;;;;4993761;28;20505;-66
2021/07/01 03:04:02;;;;;;;17.67;15.97;;;14.80;99.90;;;;;;4993746;28;20447;-66
2021/07/01 03:06:30;;;;;;;18.17;16.53;;;14.80;99.90;;;;;;4993723;28;20902;-66
2021/07/01 03:08:58;;;;;;;17.57;16.17;;;14.70;99.90;;;;;;4993805;28;20970;-66
2021/07/01 03:11:25;;;;;;;18.00;16.50;;;14.70;99.90;;;;;;4993535;28;20447;-66
2021/07/01 03:13:52;;;;;;;19.50;17.53;;;14.70;99.90;;;;;;4993627;28;20439;-66
2021/07/01 03:16:20;;;;;;;18.03;16.40;;;14.70;99.90;;;;;;4993599;28;20467;-66
2021/07/01 03:18:47;;;;;;;19.53;17.83;;;14.70;99.90;;;;;;4993555;28;20462;-66
2021/07/01 03:21:15;;;;;;;21.20;19.30;;;14.70;99.90;;;;;;4993354;28;20451;-66
2021/07/01 03:23:43;;;;;;;18.43;16.90;;;14.70;99.90;;;;;;4993397;28;20451;-66
2021/07/01 03:26:10;;;;;;;20.13;17.27;;;14.70;99.90;;;;;;4992841;28;20474;-66
2021/07/01 03:28:37;;;;;;;19.73;17.60;;;14.60;99.90;;;;;;4993400;28;20447;-66
2021/07/01 03:31:04;;;;;;;21.03;18.93;;;14.60;99.90;;;;;;4993102;28;20454;-66
2021/07/01 03:33:31;;;;;;;19.33;17.63;;;14.60;99.90;;;;;;4993062;28;20447;-66
2021/07/01 03:35:58;;;;;;;19.13;17.33;;;14.60;99.90;;;;;;4993223;28;20826;-66
2021/07/01 03:38:25;;;;;;;24.10;21.63;;;14.60;99.90;;;;;;4993302;28;20506;-66
2021/07/01 03:40:54;;;;;;;25.70;23.33;;;14.60;99.90;;;;;;4993144;28;20450;-66
2021/07/01 03:43:22;;;;;;;25.00;22.40;;;14.60;99.90;;;;;;4992899;28;20443;-66
2021/07/01 03:45:48;;;;;;;23.27;20.90;;;14.60;99.90;;;;;;4992783;28;20525;-66
2021/07/01 03:48:15;;;;;;;22.27;19.97;;;14.60;99.90;;;;;;4993094;28;20454;-66
2021/07/01 03:50:42;;;;;;;24.27;21.67;;;14.60;99.90;;;;;;4992968;28;20450;-66
2021/07/01 03:53:09;;;;;;;23.23;20.93;;;14.50;99.90;;;;;;4992725;28;20443;-66
2021/07/01 03:55:36;;;;;;;23.50;20.50;;;14.40;99.90;;;;;;4992869;28;20474;-66
2021/07/01 03:58:04;;;;;;;29.20;21.63;;;14.40;99.90;;;;;;4992819;28;20550;-66
2021/07/01 04:00:32;;;;;;;25.80;21.43;;;14.40;99.90;;;;;;4992827;28;20446;-66
2021/07/01 04:02:59;;;;;;;23.17;20.57;;;14.30;99.90;;;;;;4992594;28;20549;-66
2021/07/01 04:05:26;;;;;;;26.10;20.70;;;14.30;99.90;;;;;;4992615;28;20892;-66
2021/07/01 04:07:53;;;;;;;25.00;20.10;;;14.30;99.90;;;;;;4992664;28;20443;-66
2021/07/01 04:10:20;;;;;;;22.23;19.87;;;14.30;99.90;;;;;;4992598;28;20443;-66
2021/07/01 04:12:47;;;;;;;21.53;14.90;;;14.30;99.90;;;;;;4992284;28;20461;-66
2021/07/01 04:15:15;;;;;;;15.90;14.43;;;14.20;99.90;;;;;;4992431;28;20467;-66
2021/07/01 04:17:42;;;;;;;13.70;12.17;;;14.10;99.90;;;;;;4990298;28;20490;-65
2021/07/01 04:20:09;;;;;;;14.53;12.10;;;14.00;99.90;;;;;;4990543;28;20454;-65
2021/07/01 04:22:36;;;;;;;13.60;12.37;;;13.90;99.90;;;;;;4990530;28;20458;-65
2021/07/01 04:25:03;;;;;;;14.17;11.17;;;13.80;99.90;;;;;;4991506;28;20458;-65
2021/07/01 04:27:30;;;;;;;18.00;9.93;;;13.80;99.90;;;;;;4991523;28;20439;-65
2021/07/01 04:29:57;;;;;;;12.50;9.90;;;13.70;99.90;;;;;;4991538;28;20934;-64
2021/07/01 04:32:25;;;;;;;19.80;13.43;;;13.70;99.90;;;;;;4991226;28;20457;-64
2021/07/01 04:34:52;;;;;;;16.80;13.10;;;13.70;99.90;;;;;;4991242;28;20783;-64
2021/07/01 04:37:18;;;;;;;14.27;11.43;;;13.70;99.90;;;;;;4990688;28;20482;-65
2021/07/01 04:39:45;;;;;;;15.27;13.83;;;13.70;99.90;;;;;;4992401;28;20443;-65
2021/07/01 04:42:12;;;;;;;17.23;14.37;;;13.70;99.90;;;;;;4992133;28;20447;-64
2021/07/01 04:44:39;;;;;;;20.47;15.57;;;13.80;99.90;;;;;;4992014;28;20446;-64
2021/07/01 04:47:06;;;;;;;26.10;18.00;;;13.90;99.90;;;;;;4992230;28;20442;-64
2021/07/01 04:49:34;;;;;;;22.87;18.17;;;13.90;99.90;;;;;;4992036;28;20451;-64
2021/07/01 04:52:01;;;;;;;33.30;18.50;;;14.00;99.90;;;;;;4991831;28;20458;-64
2021/07/01 04:54:28;;;;;;;26.50;19.40;;;14.10;99.90;;;;;;4992103;28;20450;-64
2021/07/01 04:56:54;;;;;;;29.00;20.87;;;14.10;99.90;;;;;;4991899;28;20463;-64
2021/07/01 04:59:22;;;;;;;35.47;22.13;;;14.20;99.90;;;;;;4992120;28;20947;-64
2021/07/01 05:01:48;;;;;;;33.60;25.30;;;14.20;99.90;;;;;;4991760;28;20458;-64
2021/07/01 05:04:16;;;;;;;31.63;24.53;;;14.30;99.90;;;;;;4991992;28;20492;-65
2021/07/01 05:06:44;;;;;;;32.80;22.47;;;14.30;99.90;;;;;;4992051;28;20471;-65
2021/07/01 05:09:11;;;;;;;27.60;20.97;;;14.30;99.90;;;;;;4991854;28;20450;-65
2021/07/01 05:11:38;;;;;;;30.43;24.00;;;14.20;99.90;;;;;;4991776;28;20447;-64
2021/07/01 05:14:05;;;;;;;28.73;22.80;;;14.20;99.90;;;;;;4991910;28;20454;-65
2021/07/01 05:16:33;;;;;;;33.47;25.50;;;14.20;99.90;;;;;;4991811;28;20471;-65
2021/07/01 05:19:01;;;;;;;29.93;24.93;;;14.20;99.90;;;;;;4991781;28;20487;-64
2021/07/01 05:21:29;;;;;;;33.77;26.10;;;14.20;99.90;;;;;;4991602;28;20450;-65
2021/07/01 05:23:57;;;;;;;37.30;28.97;;;14.20;99.90;;;;;;4991932;28;20816;-65
2021/07/01 05:26:23;;;;;;;39.50;26.33;;;14.20;99.90;;;;;;4991707;28;20654;-64
2021/07/01 05:28:50;;;;;;;31.70;25.50;;;14.30;99.90;;;;;;4991932;28;20841;-65
2021/07/01 05:31:17;;;;;;;38.37;25.30;;;14.20;99.90;;;;;;4991628;28;20818;-64
2021/07/01 05:33:43;;;;;;;28.83;24.50;;;14.30;99.90;;;;;;4991628;28;20443;-65
2021/07/01 05:36:10;;;;;;;35.83;25.30;;;14.40;99.90;;;;;;4991633;28;20995;-65
2021/07/01 05:38:38;;;;;;;31.73;28.43;;;14.40;99.90;;;;;;4991595;28;20566;-65
2021/07/01 05:41:06;;;;;;;31.77;25.97;;;14.50;99.90;;;;;;4991443;28;20451;-64
2021/07/01 05:43:32;;;;;;;30.73;26.87;;;14.60;99.90;;;;;;4991685;28;20450;-65
2021/07/01 05:46:00;;;;;;;28.33;25.37;;;14.70;99.90;;;;;;5014735;23;20495;-63
2021/07/01 05:48:27;;;;;;;28.97;25.87;;;14.70;99.90;;;;;;4986775;28;20940;-64
2021/07/01 05:50:59;;;;;;;28.63;25.70;;;14.80;99.90;;;;;;4975981;28;20815;-64
2021/07/01 05:53:28;;;;;;;33.00;25.53;;;14.80;99.90;;;;;;4976109;28;20490;-63
2021/07/01 05:55:55;;;;;;;29.97;26.90;;;15.00;99.90;;;;;;4975837;28;20471;-63
2021/07/01 05:58:23;;;;;;;26.87;24.43;;;15.00;99.90;;;;;;4975672;28;20490;-64
2021/07/01 06:00:50;;;;;;;29.10;26.17;;;15.10;99.90;;;;;;4975752;28;20454;-64
2021/07/01 06:03:16;;;;;;;28.53;25.50;;;15.20;99.90;;;;;;4975538;28;20450;-64
2021/07/01 06:05:45;;;;;;;27.93;25.10;;;15.30;99.90;;;;;;4975602;28;20603;-64
2021/07/01 06:08:14;;;;;;;26.90;23.90;;;15.50;99.90;;;;;;4975740;28;20459;-64
2021/07/01 06:10:43;;;;;;;24.80;22.43;;;15.60;99.90;;;;;;4975791;28;20483;-63
2021/07/01 06:13:11;;;;;;;27.63;24.90;;;15.50;99.90;;;;;;4975432;28;20511;-64
2021/07/01 06:15:39;;;;;;;25.83;23.50;;;15.40;99.90;;;;;;4975527;28;20472;-63
2021/07/01 06:18:06;;;;;;;26.13;24.00;;;15.40;99.90;;;;;;4975383;28;20479;-64
2021/07/01 06:20:33;;;;;;;27.93;25.13;;;15.50;99.90;;;;;;4975555;28;20454;-64
2021/07/01 06:23:00;;;;;;;27.30;24.80;;;15.50;99.90;;;;;;4975198;28;20444;-64
2021/07/01 06:25:26;;;;;;;27.10;24.10;;;15.50;99.90;;;;;;4975452;28;20466;-64
2021/07/01 06:27:54;;;;;;;29.10;26.47;;;15.50;99.90;;;;;;4975213;28;20448;-64
2021/07/01 06:30:21;;;;;;;26.83;24.33;;;15.60;99.90;;;;;;4975308;28;20447;-64
2021/07/01 06:32:51;;;;;;;26.73;24.13;;;15.90;99.90;;;;;;4975131;28;20817;-64
2021/07/01 06:35:20;;;;;;;26.83;24.63;;;15.80;99.90;;;;;;4975183;28;20470;-64
2021/07/01 06:37:48;;;;;;;25.93;23.60;;;15.80;99.90;;;;;;4975096;28;20480;-64
2021/07/01 06:40:16;;;;;;;29.10;26.10;;;15.70;99.90;;;;;;4975196;28;20451;-64
2021/07/01 06:42:47;;;;;;;27.47;25.17;;;15.80;99.90;;;;;;4974825;28;20444;-64
2021/07/01 06:45:15;;;;;;;26.20;24.20;;;15.70;99.90;;;;;;4974926;28;20447;-64
2021/07/01 06:47:46;;;;;;;25.27;23.03;;;15.60;99.90;;;;;;4975035;28;20455;-64
2021/07/01 06:50:15;;;;;;;26.40;24.00;;;15.60;99.90;;;;;;4974913;28;20929;-64
2021/07/01 06:52:44;;;;;;;27.53;25.10;;;15.70;99.90;;;;;;4974559;28;20451;-64
2021/07/01 06:55:12;;;;;;;27.27;24.77;;;15.50;99.90;;;;;;4974906;28;21000;-64
2021/07/01 06:57:40;;;;;;;27.70;25.50;;;15.50;99.90;;;;;;4974895;28;20863;-64
2021/07/01 07:00:08;;;;;;;29.13;26.63;;;15.50;99.90;;;;;;4973831;28;20448;-64
2021/07/01 07:02:35;;;;;;;26.57;24.00;;;15.40;99.90;;;;;;4974368;28;20443;-64
2021/07/01 07:05:04;;;;;;;28.00;25.70;;;15.50;99.90;;;;;;4974461;28;20450;-64
2021/07/01 07:07:32;;;;;;;28.50;24.13;;;15.70;99.90;;;;;;4974526;28;20579;-64
2021/07/01 07:10:02;;;;;;;26.30;24.20;;;15.80;99.90;;;;;;4974509;28;20479;-64
2021/07/01 07:12:29;;;;;;;26.80;24.50;;;16.00;99.90;;;;;;4974295;28;20455;-64
2021/07/01 07:14:56;;;;;;;26.73;24.43;;;16.10;99.90;;;;;;4974287;28;20443;-64
2021/07/01 07:17:33;;;;;;;27.93;25.53;;;16.00;99.90;;;;;;4974284;28;20825;-64
2021/07/01 07:20:01;;;;;;;27.57;24.90;;;16.10;99.90;;;;;;4974360;28;20442;-64
2021/07/01 07:22:31;;;;;;;27.37;24.77;;;16.30;99.90;;;;;;4974099;28;20448;-64
2021/07/01 07:25:03;;;;;;;26.97;24.53;;;16.40;99.90;;;;;;4974130;28;20439;-64
2021/07/01 07:27:31;;;;;;;26.57;24.63;;;16.50;99.90;;;;;;4974289;28;20448;-64
2021/07/01 07:29:59;;;;;;;27.10;24.30;;;16.70;99.90;;;;;;4974147;28;20447;-64
2021/07/01 07:32:28;;;;;;;27.60;25.10;;;16.60;99.90;;;;;;4973966;28;20970;-65
2021/07/01 07:34:55;;;;;;;26.63;24.80;;;16.80;99.90;;;;;;4974100;28;20448;-64
2021/07/01 07:37:22;;;;;;;26.37;23.87;;;16.70;99.90;;;;;;4974003;28;20440;-65
2021/07/01 07:39:49;;;;;;;26.33;23.97;;;16.60;99.90;;;;;;4973890;28;20493;-64
2021/07/01 07:42:19;;;;;;;24.97;23.37;;;16.50;99.90;;;;;;4973743;28;20452;-64
2021/07/01 07:44:46;;;;;;;25.13;23.03;;;16.60;99.90;;;;;;4973904;28;20455;-65
2021/07/01 07:47:14;;;;;;;25.40;23.43;;;16.70;99.90;;;;;;4973627;28;20853;-65
2021/07/01 07:49:42;;;;;;;24.10;22.57;;;16.70;99.90;;;;;;4973791;28;20495;-64
2021/07/01 07:52:10;;;;;;;26.50;24.60;;;16.70;99.90;;;;;;4973529;28;20444;-64
2021/07/01 07:54:43;;;;;;;25.80;23.60;;;16.60;99.90;;;;;;4973815;28;20451;-65
2021/07/01 07:57:10;;;;;;;28.03;25.70;;;16.50;99.90;;;;;;4973678;28;20475;-64
2021/07/01 07:59:39;;;;;;;24.83;22.93;;;16.50;99.90;;;;;;4973537;28;20479;-64
2021/07/01 08:02:08;;;;;;;23.60;21.50;;;16.70;99.90;;;;;;4973304;28;20443;-65
2021/07/01 08:04:36;;;;;;;24.97;23.17;;;16.80;99.90;;;;;;4973620;28;20448;-64
2021/07/01 08:07:04;;;;;;;24.20;22.30;;;16.70;99.90;;;;;;4973455;28;20499;-64
2021/07/01 08:09:31;;;;;;;23.87;22.00;;;16.70;99.90;;;;;;4973531;28;20807;-65
2021/07/01 08:11:58;;;;;;;22.47;20.80;;;16.70;99.90;;;;;;4973154;28;20451;-64
2021/07/01 08:14:26;;;;;;;25.03;22.83;;;16.80;99.90;;;;;;4973344;28;20447;-65
2021/07/01 08:16:54;;;;;;;23.43;21.83;;;17.10;99.90;;;;;;4973358;28;20832;-64
2021/07/01 08:19:21;;;;;;;23.33;21.63;;;17.30;99.90;;;;;;4973312;28;20483;-65
2021/07/01 08:21:48;;;;;;;23.33;21.53;;;17.40;99.90;;;;;;4973135;28;20828;-65
2021/07/01 08:24:15;;;;;;;24.03;22.03;;;17.50;99.90;;;;;;4973216;28;20479;-65
2021/07/01 08:26:42;;;;;;;23.10;21.70;;;17.30;99.90;;;;;;4973094;28;20470;-65
2021/07/01 08:29:11;;;;;;;24.60;22.30;;;17.40;99.90;;;;;;4973193;28;20444;-65
2021/07/01 08:31:42;;;;;;;22.63;21.13;;;17.30;99.90;;;;;;4972983;28;20448;-65
2021/07/01 08:34:11;;;;;;;23.43;21.60;;;17.40;99.90;;;;;;4973249;28;20466;-65
2021/07/01 08:36:44;;;;;;;24.43;22.70;;;17.20;99.90;;;;;;4973019;28;20981;-65
2021/07/01 08:39:11;;;;;;;24.33;22.67;;;17.10;99.90;;;;;;4972961;28;20483;-65
2021/07/01 08:41:42;;;;;;;25.10;22.87;;;17.10;99.90;;;;;;4972826;28;20952;-65
2021/07/01 08:44:16;;;;;;;23.83;22.23;;;17.00;99.90;;;;;;4972927;28;20452;-65
2021/07/01 08:46:48;;;;;;;24.27;22.43;;;16.90;99.90;;;;;;4972752;28;21075;-65
2021/07/01 08:49:31;;;;;;;24.87;22.90;;;16.90;99.90;;;;;;4972898;28;20627;-65
2021/07/01 08:52:03;;;;;;;22.80;21.20;;;16.80;99.90;;;;;;4972704;28;20448;-65
2021/07/01 08:54:33;;;;;;;23.37;21.70;;;16.60;99.90;;;;;;4972853;28;20448;-65
2021/07/01 08:57:00;;;;;;;23.60;21.53;;;16.50;99.90;;;;;;4972797;28;20848;-65
2021/07/01 08:59:34;;;;;;;23.27;21.37;;;16.50;99.90;;;;;;4972709;28;20781;-65
2021/07/01 09:02:04;;;;;;;22.07;20.77;;;16.50;99.90;;;;;;4972524;28;20450;-65
2021/07/01 09:04:38;;;;;;;22.30;20.50;;;16.40;99.90;;;;;;4972710;28;20454;-65
2021/07/01 09:07:06;;;;;;;21.63;20.20;;;16.50;99.90;;;;;;4972673;28;20840;-65
2021/07/01 09:09:34;;;;;;;21.57;19.93;;;16.70;99.90;;;;;;4972632;28;20447;-65
2021/07/01 09:12:04;;;;;;;22.20;20.37;;;16.50;99.90;;;;;;4972413;28;20451;-65
2021/07/01 09:14:31;;;;;;;19.80;18.60;;;16.50;99.90;;;;;;4972556;28;20933;-65
2021/07/01 09:17:03;;;;;;;21.70;19.97;;;16.30;99.90;;;;;;4972510;28;20474;-65
2021/07/01 09:19:31;;;;;;;19.13;18.13;;;16.30;99.90;;;;;;4972585;28;20538;-65
2021/07/01 09:22:01;;;;;;;20.47;19.00;;;16.40;99.90;;;;;;4972307;28;20455;-65
2021/07/01 09:24:30;;;;;;;19.43;18.30;;;16.50;99.90;;;;;;4975904;28;20451;-65
2021/07/01 09:26:58;;;;;;;20.67;19.27;;;16.50;99.90;;;;;;4976394;28;20479;-65
2021/07/01 09:29:26;;;;;;;21.50;20.00;;;16.60;99.90;;;;;;4976415;28;20447;-65
2021/07/01 09:31:55;;;;;;;21.63;20.27;;;16.60;99.90;;;;;;4976278;28;20455;-65
2021/07/01 09:34:21;;;;;;;19.83;18.27;;;16.70;99.90;;;;;;4976358;28;20459;-65
2021/07/01 09:36:49;;;;;;;20.57;19.40;;;16.70;99.90;;;;;;4976151;28;20464;-65
2021/07/01 09:39:21;;;;;;;20.77;19.40;;;16.60;99.90;;;;;;4976224;28;20490;-65
2021/07/01 09:41:48;;;;;;;20.43;19.20;;;16.50;99.90;;;;;;4975911;28;20447;-65
2021/07/01 09:44:18;;;;;;;20.53;19.27;;;16.50;99.90;;;;;;4976125;28;20452;-65
2021/07/01 09:46:48;;;;;;;18.93;17.73;;;16.50;99.90;;;;;;4975973;28;20534;-65
2021/07/01 09:49:19;;;;;;;20.17;18.87;;;16.60;99.90;;;;;;4976152;28;20861;-65
2021/07/01 09:51:53;;;;;;;20.70;19.40;;;16.60;99.90;;;;;;4975606;28;20972;-65
2021/07/01 09:54:22;;;;;;;20.67;19.27;;;16.90;99.90;;;;;;4975950;28;20797;-65
2021/07/01 09:56:53;;;;;;;22.40;20.67;;;17.40;99.90;;;;;;4975928;28;20995;-65
2021/07/01 09:59:23;;;;;;;20.23;19.13;;;17.70;99.90;;;;;;4975740;28;20498;-65
2021/07/01 10:01:50;;;;;;;21.03;19.80;;;17.70;99.90;;;;;;4975689;28;20451;-65
2021/07/01 10:04:17;;;;;;;19.83;18.73;;;17.90;99.90;;;;;;4975804;28;20448;-65
2021/07/01 10:06:44;;;;;;;20.23;19.13;;;18.00;99.90;;;;;;4975632;28;20989;-65
2021/07/01 10:09:29;;;;;;;22.83;20.77;;;18.10;99.90;;;;;;4975737;28;20467;-65
2021/07/01 10:11:56;;;;;;;21.73;20.20;;;17.80;99.90;;;;;;4975511;28;20452;-65
2021/07/01 10:14:25;;;;;;;21.30;20.10;;;17.90;99.90;;;;;;4975401;28;20443;-65
2021/07/01 10:16:53;;;;;;;22.67;21.27;;;17.90;99.90;;;;;;4975454;28;20574;-65
2021/07/01 10:19:23;;;;;;;23.23;21.60;;;17.80;99.90;;;;;;4975360;28;20518;-65
2021/07/01 10:22:03;;;;;;;22.23;20.90;;;17.70;99.90;;;;;;4975391;28;20447;-65
2021/07/01 10:24:35;;;;;;;21.77;20.23;;;17.70;99.90;;;;;;4975317;28;20456;-65
2021/07/01 10:27:03;;;;;;;23.10;21.13;;;17.80;99.90;;;;;;4975207;28;20473;-65
2021/07/01 10:29:37;;;;;;;22.97;20.77;;;17.90;99.90;;;;;;4975203;28;20451;-65
2021/07/01 10:32:07;;;;;;;22.20;20.80;;;18.10;99.90;;;;;;4974963;28;20876;-65
2021/07/01 10:34:48;;;;;;;23.10;21.50;;;18.10;99.90;;;;;;4973866;28;20459;-65
2021/07/01 10:37:18;;;;;;;23.23;21.37;;;18.00;99.90;;;;;;4975087;28;20475;-65
2021/07/01 10:39:48;;;;;;;22.70;21.23;;;17.90;99.90;;;;;;4974927;28;20538;-65
2021/07/01 10:42:16;;;;;;;22.50;21.10;;;17.80;99.90;;;;;;4974784;28;20502;-65
2021/07/01 10:44:44;;;;;;;23.47;21.63;;;17.90;99.90;;;;;;4974957;28;20455;-65
2021/07/01 10:47:28;;;;;;;23.30;21.70;;;17.70;99.90;;;;;;4974989;28;20480;-65
2021/07/01 10:49:55;;;;;;;26.43;24.00;;;17.50;99.90;;;;;;4975053;28;20457;-65
2021/07/01 10:52:34;;;;;;;25.40;23.77;;;17.40;99.90;;;;;;4974644;28;20459;-65
2021/07/01 10:55:04;;;;;;;24.57;22.43;;;17.40;99.90;;;;;;4974692;28;20451;-65
2021/07/01 10:57:31;;;;;;;24.70;23.00;;;17.30;99.90;;;;;;4974641;28;20451;-65
2021/07/01 10:59:59;;;;;;;25.20;23.50;;;17.10;99.90;;;;;;4974689;28;20487;-65
2021/07/01 11:02:27;;;;;;;24.37;22.67;;;17.00;99.90;;;;;;4974473;28;20447;-65
2021/07/01 11:04:55;;;;;;;24.00;22.10;;;17.00;99.90;;;;;;4974593;28;20448;-65
2021/07/01 11:07:22;;;;;;;24.80;22.90;;;16.90;99.90;;;;;;4974404;28;20455;-65
2021/07/01 11:09:52;;;;;;;25.40;23.60;;;16.70;99.90;;;;;;4974613;28;20444;-65
2021/07/01 11:12:23;;;;;;;25.10;23.20;;;16.60;99.90;;;;;;4974307;28;20455;-65
2021/07/01 11:14:52;;;;;;;23.80;22.13;;;16.60;99.90;;;;;;4974448;28;20456;-65
2021/07/01 11:17:29;;;;;;;24.70;23.13;;;16.70;99.90;;;;;;4974389;28;20471;-65
2021/07/01 11:19:56;;;;;;;24.60;23.03;;;16.80;99.90;;;;;;4974329;28;20487;-65
2021/07/01 11:22:43;;;;;;;23.93;22.20;;;16.90;99.90;;;;;;4974096;28;20455;-65
2021/07/01 11:25:21;;;;;;;25.83;23.73;;;16.90;99.90;;;;;;4974142;28;20452;-65
2021/07/01 11:27:49;;;;;;;24.23;22.17;;;16.90;99.90;;;;;;4974204;28;21024;-65
2021/07/01 11:30:22;;;;;;;24.33;22.40;;;17.00;99.90;;;;;;4974337;28;20625;-65
2021/07/01 11:32:49;;;;;;;23.80;22.33;;;16.90;99.90;;;;;;4973906;28;20451;-65
2021/07/01 11:35:23;;;;;;;22.93;21.47;;;16.90;99.90;;;;;;4974037;28;20479;-65
2021/07/01 11:37:50;;;;;;;22.10;20.50;;;16.90;99.90;;;;;;4974100;28;20443;-65
2021/07/01 11:40:19;;;;;;;21.20;19.90;;;17.00;99.90;;;;;;4973965;28;20487;-65
2021/07/01 11:42:46;;;;;;;21.37;19.77;;;16.90;99.90;;;;;;4973814;28;20456;-65
2021/07/01 11:45:14;;;;;;;23.33;21.57;;;16.90;99.90;;;;;;4973538;28;20971;-65
2021/07/01 11:47:43;;;;;;;22.93;21.53;;;17.00;99.90;;;;;;4974247;28;20653;-65
2021/07/01 11:50:11;;;;;;;22.40;20.80;;;17.20;99.90;;;;;;4973733;28;20934;-65
2021/07/01 11:52:38;;;;;;;22.67;21.37;;;17.20;99.90;;;;;;4973516;28;20447;-65
2021/07/01 11:55:06;;;;;;;24.13;22.23;;;17.20;99.90;;;;;;4973500;28;20447;-65
2021/07/01 11:57:32;;;;;;;22.43;20.60;;;17.30;99.90;;;;;;4973566;28;20448;-65
2021/07/01 11:59:59;;;;;;;21.43;20.20;;;17.30;99.90;;;;;;4973504;28;20510;-65
2021/07/01 12:02:27;;;;;;;21.43;20.13;;;17.40;99.90;;;;;;4973277;28;20450;-65
2021/07/01 12:04:54;;;;;;;23.97;22.37;;;17.30;99.90;;;;;;4973635;28;20458;-65
2021/07/01 12:07:25;;;;;;;21.30;19.80;;;17.50;99.90;;;;;;4973577;28;20479;-65
2021/07/01 12:09:54;;;;;;;22.07;20.57;;;17.40;99.90;;;;;;4973532;28;20948;-65
2021/07/01 12:12:22;;;;;;;21.83;20.43;;;17.60;99.90;;;;;;4973217;28;20448;-65
2021/07/01 12:14:50;;;;;;;21.37;20.27;;;17.70;99.90;;;;;;4973338;28;20452;-65
2021/07/01 12:17:58;;;;;;;21.53;20.13;;;17.70;99.90;;;;;;4973292;28;20471;-65
2021/07/01 12:20:45;;;;;;;21.90;20.27;;;17.70;99.90;;;;;;4973170;28;20852;-65
2021/07/01 12:23:23;;;;;;;22.60;21.07;;;17.80;99.90;;;;;;4972929;28;21022;-65
2021/07/01 12:25:51;;;;;;;21.30;20.00;;;17.90;99.90;;;;;;4973045;28;20562;-65
2021/07/01 12:28:22;;;;;;;22.57;20.90;;;17.80;99.90;;;;;;4973346;28;20817;-65
2021/07/01 12:31:04;;;;;;;20.60;19.43;;;17.70;99.90;;;;;;4973246;28;20551;-65
2021/07/01 12:33:39;;;;;;;21.90;20.33;;;17.70;99.90;;;;;;4973082;28;20857;-65
2021/07/01 12:36:12;;;;;;;21.70;20.40;;;17.80;99.90;;;;;;4973237;28;20799;-65